CW6242 Cefala IT current weather conditions

sailwx.info

Wind from 225 at 8 knots gusting 15

Air temperature 16.7° C
Dewpoint -4.0° C

Last reported at 2020-Feb-26 02:10 UTC.
Time now 2020-Feb-26 03:02 UTC

Location: N 38°01' E 013°58'.
View on Google Maps.

See reports from other nearby stations

  
Tides and Currents Weather Stations Pressure Air Temp Water Temp Dewpoint Dewpoint Depression Visibility Wind Speed Wind Dir Waves Ship Positions
date/time (UTC)wind fromknots sea level pressurealtimeterstation pressurevisibilityair tempwater tempwave heightnotes
2020-Feb-26 02:10 225 8 gusting 15 16.7
2020-Feb-26 02:00 248 9 gusting 20 16.7
2020-Feb-26 01:50 248 10 gusting 19 16.7
2020-Feb-26 01:40 248 9 gusting 17 16.7
2020-Feb-26 01:30 248 7 gusting 16 16.1
2020-Feb-26 01:20 248 7 gusting 14 16.7
2020-Feb-26 01:10 248 8 gusting 16 16.7
2020-Feb-26 01:00 248 8 gusting 16 16.1
2020-Feb-26 00:50 248 6 gusting 15 16.1
2020-Feb-26 00:40 248 6 gusting 13 16.7
2020-Feb-26 00:20 248 6 gusting 11 16.7
2020-Feb-26 00:10 248 6 gusting 10 16.7
2020-Feb-26 00:00 248 6 gusting 11 16.1
2020-Feb-25 23:50 248 7 gusting 13 16.1
2020-Feb-25 23:40 248 8 gusting 14 16.1
2020-Feb-25 23:30 248 7 gusting 16 15.6
2020-Feb-25 23:20 248 6 gusting 12 15.6
2020-Feb-25 23:10 248 6 gusting 10 16.1
2020-Feb-25 23:00 248 6 gusting 12 16.1
2020-Feb-25 22:50 248 5 gusting 12 16.1
2020-Feb-25 22:40 248 6 gusting 10 16.1
2020-Feb-25 22:30 248 7 gusting 15 16.1
2020-Feb-25 22:20 248 7 gusting 16 16.1
2020-Feb-25 22:10 248 7 gusting 15 15.6
2020-Feb-25 22:00 248 6 gusting 14 15.6
2020-Feb-25 21:50 248 6 gusting 13 15.6
2020-Feb-25 21:40 248 6 gusting 12 15.6
2020-Feb-25 21:30 225 3 gusting 9 15.0
2020-Feb-25 21:20 225 2 gusting 7 15.0
2020-Feb-25 21:10 225 5 gusting 12 15.0
2020-Feb-25 21:00 225 8 gusting 13 15.0
2020-Feb-25 20:50 225 4 gusting 10 13.9
2020-Feb-25 20:40 248 0 gusting 5 13.9
2020-Feb-25 20:30 270 0 gusting 2 14.4
2020-Feb-25 20:20 225 0 gusting 2 15.0
2020-Feb-25 20:10 225 1 gusting 4 15.0
2020-Feb-25 20:00 225 4 gusting 6 14.4
2020-Feb-25 19:50 225 2 gusting 6 12.8
2020-Feb-25 19:40 12.2
2020-Feb-25 19:30 248 0 gusting 2 12.2
2020-Feb-25 19:20 180 2 gusting 6 11.7
2020-Feb-25 19:10 180 4 gusting 7 11.7
2020-Feb-25 19:00 203 3 gusting 6 12.2
2020-Feb-25 18:50 203 3 gusting 6 12.2
2020-Feb-25 18:40 225 1 gusting 2 11.7
2020-Feb-25 18:30 225 0 gusting 1 11.7
2020-Feb-25 18:20 180 0 gusting 1 12.2
2020-Feb-25 18:10 180 1 gusting 4 12.2
2020-Feb-25 18:00 12.2
2020-Feb-25 17:50 12.2
2020-Feb-25 17:40 270 0 gusting 1 12.2
2020-Feb-25 17:30 270 0 gusting 2 12.2
2020-Feb-25 17:20 12.2
2020-Feb-25 17:10 12.2
2020-Feb-25 17:00 180 0 gusting 2 12.2
2020-Feb-25 16:50 12.2
2020-Feb-25 16:40 12.8
2020-Feb-25 16:30 12.8
2020-Feb-25 16:20 180 0 gusting 2 12.8
2020-Feb-25 16:10 090 0 gusting 2 12.8
2020-Feb-25 16:00 090 0 gusting 2 12.8
2020-Feb-25 15:50 113 1 gusting 2 13.3
2020-Feb-25 15:40 113 0 gusting 2 13.9
2020-Feb-25 15:30 135 0 gusting 2 13.9
2020-Feb-25 15:20 023 0 gusting 2 14.4
2020-Feb-25 15:10 045 1 gusting 3 15.0
2020-Feb-25 15:00 203 0 gusting 1 16.1
2020-Feb-25 14:50 203 0 gusting 4 16.1
2020-Feb-25 14:40 180 1 gusting 5 15.6
2020-Feb-25 14:30 180 0 gusting 3 14.4
2020-Feb-25 14:20 068 0 gusting 3 13.9
2020-Feb-25 14:10 068 1 gusting 3 13.9
2020-Feb-25 14:00 090 1 gusting 2 13.9
2020-Feb-25 13:50 068 1 gusting 3 14.4
2020-Feb-25 13:40 068 1 gusting 4 15.0
2020-Feb-25 13:30 090 0 gusting 2 15.0
2020-Feb-25 13:20 090 1 gusting 3 14.4
2020-Feb-25 13:00 068 3 gusting 6 14.4
2020-Feb-25 12:50 068 3 gusting 5 14.4
2020-Feb-25 12:40 068 2 gusting 5 15.0
2020-Feb-25 12:30 090 2 gusting 4 15.0
2020-Feb-25 12:20 113 1 gusting 3 15.6
2020-Feb-25 12:10 090 1 gusting 4 15.0
2020-Feb-25 12:00 090 2 gusting 5 15.0
2020-Feb-25 11:50 090 1 gusting 5 15.0
2020-Feb-25 11:40 090 2 gusting 5 15.0
2020-Feb-25 11:30 090 2 gusting 5 15.0
2020-Feb-25 11:20 090 2 gusting 5 15.6
2020-Feb-25 11:10 090 1 gusting 4 16.1
2020-Feb-25 11:00 068 1 gusting 3 16.7
2020-Feb-25 10:50 068 1 gusting 3 16.7
2020-Feb-25 10:40 090 1 gusting 2 16.1
2020-Feb-25 10:30 068 1 gusting 3 15.6
2020-Feb-25 10:20 090 1 gusting 3 15.6
2020-Feb-25 10:10 068 1 gusting 3 15.0
2020-Feb-25 10:00 090 1 gusting 3 15.0
2020-Feb-25 09:50 090 1 gusting 5 15.0
2020-Feb-25 09:40 090 1 gusting 3 15.6
2020-Feb-25 09:30 090 1 gusting 2 15.6
2020-Feb-25 09:20 113 1 gusting 2 15.6
2020-Feb-25 09:10 113 1 gusting 2 15.0
2020-Feb-25 09:00 113 0 gusting 3 15.0
2020-Feb-25 08:50 090 1 gusting 3 14.4
2020-Feb-25 08:40 090 1 gusting 2 14.4
2020-Feb-25 08:30 090 1 gusting 3 14.4
2020-Feb-25 08:20 135 1 gusting 4 13.9
2020-Feb-25 08:10 023 0 gusting 2 13.9
2020-Feb-25 08:00 158 0 gusting 3 13.3
2020-Feb-25 07:50 12.8
2020-Feb-25 07:40 068 0 gusting 2 12.8
2020-Feb-25 07:30 090 1 gusting 3 12.2
2020-Feb-25 07:20 068 2 gusting 5 12.2
2020-Feb-25 07:10 090 2 gusting 4 11.7
2020-Feb-25 07:00 090 2 gusting 3 11.7
2020-Feb-25 06:50 090 2 gusting 4 11.1
2020-Feb-25 06:40 068 2 gusting 4 11.1
2020-Feb-25 06:30 068 0 gusting 2 11.1
2020-Feb-25 06:20 11.1
2020-Feb-25 06:10 090 1 gusting 3 11.1
2020-Feb-25 06:00 090 0 gusting 2 10.6
2020-Feb-25 05:50 090 1 gusting 3 11.1
2020-Feb-25 05:40 090 1 gusting 3 11.1
2020-Feb-25 05:30 090 2 gusting 4 11.1
2020-Feb-25 05:20 068 2 gusting 4 11.1
2020-Feb-25 05:10 090 1 gusting 2 11.1
2020-Feb-25 05:00 090 0 gusting 2 11.1
2020-Feb-25 04:50 090 1 gusting 3 11.7
2020-Feb-25 04:40 090 0 gusting 2 11.7
2020-Feb-25 04:30 090 0 gusting 3 11.7
2020-Feb-25 04:20 248 0 gusting 3 11.7
2020-Feb-25 04:10 12.2
2020-Feb-25 04:00 248 0 gusting 1 12.2
2020-Feb-25 03:50 12.2
2020-Feb-25 03:40 248 0 gusting 1 12.2
2020-Feb-25 03:30 225 1 gusting 3 12.2
2020-Feb-25 03:20 225 1 gusting 2 12.2
2020-Feb-25 03:10 12.2
2020-Feb-25 03:00 12.2
2020-Feb-25 02:50 225 0 gusting 2 12.2
2020-Feb-25 02:40 12.2
2020-Feb-25 02:30 203 1 gusting 3 12.2
2020-Feb-25 02:20 12.2
2020-Feb-25 02:10 12.2
2020-Feb-25 02:00 203 0 gusting 1 12.2
2020-Feb-25 01:50 180 0 gusting 1 12.2
2020-Feb-25 01:40 12.2
2020-Feb-25 01:30 12.2
2020-Feb-25 01:20 12.8
2020-Feb-25 01:10 180 0 gusting 1 12.8
2020-Feb-25 01:00 180 0 gusting 1 12.8
2020-Feb-25 00:50 180 1 gusting 2 13.3
2020-Feb-25 00:40 180 2 gusting 5 13.3
2020-Feb-25 00:20 180 2 gusting 4 12.8
2020-Feb-25 00:10 180 2 gusting 5 12.8
2020-Feb-25 00:00 203 1 gusting 4 13.3
2020-Feb-24 23:50 225 1 gusting 2 13.3
2020-Feb-24 23:40 225 1 gusting 2 12.8
2020-Feb-24 23:30 225 1 gusting 3 12.2
2020-Feb-24 23:20 248 0 gusting 2 12.2
2020-Feb-24 23:10 248 0 gusting 1 12.2
2020-Feb-24 23:00 12.2
2020-Feb-24 22:50 12.2
2020-Feb-24 22:40 12.2
2020-Feb-24 22:30 248 1 gusting 2 12.2
2020-Feb-24 22:20 248 0 gusting 2 12.2
2020-Feb-24 22:10 12.2
2020-Feb-24 22:00 12.2
2020-Feb-24 21:50 12.8
2020-Feb-24 21:40 12.2
2020-Feb-24 21:30 12.2
2020-Feb-24 21:20 12.2
2020-Feb-24 21:10 12.2
2020-Feb-24 21:00 12.2
2020-Feb-24 20:50 12.2
2020-Feb-24 20:40 12.2
2020-Feb-24 20:30 203 0 gusting 1 12.8
2020-Feb-24 20:20 12.2
2020-Feb-24 20:10 203 1 gusting 3 12.2
2020-Feb-24 20:00 180 2 gusting 4 11.7
2020-Feb-24 19:50 203 3 gusting 5 11.7
2020-Feb-24 19:40 203 3 gusting 6 11.7
2020-Feb-24 19:30 203 2 gusting 3 12.2
2020-Feb-24 19:20 203 2 gusting 4 11.7
2020-Feb-24 19:10 203 2 gusting 5 11.7
2020-Feb-24 19:00 203 1 gusting 3 11.7
2020-Feb-24 18:50 203 1 gusting 3 11.7
2020-Feb-24 18:40 203 1 gusting 2 11.1
2020-Feb-24 18:30 180 3 gusting 5 10.6
2020-Feb-24 18:00 180 3 gusting 6 11.1
2020-Feb-24 17:50 180 2 gusting 6 11.1
2020-Feb-24 17:40 225 0 gusting 2 11.7
2020-Feb-24 17:30 225 1 gusting 2 11.7
2020-Feb-24 17:20 248 1 gusting 2 11.7
2020-Feb-24 17:10 248 0 gusting 2 12.2
2020-Feb-24 17:00 12.2
2020-Feb-24 16:50 12.2
2020-Feb-24 16:40 12.2
2020-Feb-24 16:30 12.2
2020-Feb-24 16:20 12.2
2020-Feb-24 16:10 12.8
2020-Feb-24 16:00 12.8
2020-Feb-24 15:50 12.8
2020-Feb-24 15:40 023 1 gusting 3 12.8
2020-Feb-24 15:30 023 0 gusting 2 12.8
2020-Feb-24 15:20 023 1 gusting 3 12.8
2020-Feb-24 15:10 023 1 gusting 4 12.8
2020-Feb-24 15:00 045 2 gusting 5 12.2
2020-Feb-24 14:50 045 3 gusting 5 12.8
2020-Feb-24 14:40 045 2 gusting 5 12.8
2020-Feb-24 14:30 045 2 gusting 4 12.8
2020-Feb-24 14:20 068 2 gusting 6 12.8
2020-Feb-24 14:10 068 2 gusting 5 13.3
2020-Feb-24 14:00 045 1 gusting 4 13.3
2020-Feb-24 13:50 068 1 gusting 3 13.3
2020-Feb-24 13:40 068 2 gusting 4 13.3
2020-Feb-24 13:30 068 2 gusting 4 13.3
2020-Feb-24 13:20 068 2 gusting 6 13.9
2020-Feb-24 13:10 068 1 gusting 4 13.9
2020-Feb-24 13:00 068 2 gusting 4 13.3
2020-Feb-24 12:50 045 2 gusting 4 13.9
2020-Feb-24 12:40 068 2 gusting 6 13.9
2020-Feb-24 12:30 045 3 gusting 7 13.3
2020-Feb-24 12:20 068 2 gusting 6 13.3
2020-Feb-24 12:10 068 3 gusting 6 13.3
2020-Feb-24 12:00 068 4 gusting 7 13.3
2020-Feb-24 11:50 068 4 gusting 8 13.3
2020-Feb-24 11:40 045 4 gusting 8 13.9
2020-Feb-24 11:30 068 4 gusting 7 13.3
2020-Feb-24 11:20 068 5 gusting 8 13.3
2020-Feb-24 11:10 068 5 gusting 9 13.3
2020-Feb-24 11:00 068 4 gusting 8 13.3
2020-Feb-24 10:50 045 4 gusting 8 13.9
2020-Feb-24 10:40 068 5 gusting 8 13.3
2020-Feb-24 10:30 068 4 gusting 7 13.3
2020-Feb-24 10:20 068 4 gusting 8 13.3
2020-Feb-24 10:10 068 4 gusting 9 13.3
2020-Feb-24 10:00 068 5 gusting 8 13.3
2020-Feb-24 09:50 068 5 gusting 7 13.3
2020-Feb-24 09:40 068 4 gusting 7 13.3
2020-Feb-24 09:30 068 4 gusting 6 13.3
2020-Feb-24 09:20 068 5 gusting 7 13.3
2020-Feb-24 09:10 068 5 gusting 8 12.8
2020-Feb-24 09:00 068 4 gusting 7 12.8
2020-Feb-24 08:50 068 4 gusting 6 12.8
2020-Feb-24 08:40 068 5 gusting 8 12.2
2020-Feb-24 08:30 068 4 gusting 7 12.2
2020-Feb-24 08:20 068 3 gusting 6 11.7
2020-Feb-24 08:10 068 3 gusting 6 11.7
2020-Feb-24 08:00 068 3 gusting 6 11.7
2020-Feb-24 07:50 045 2 gusting 4 11.7
2020-Feb-24 07:40 068 2 gusting 6 11.7
2020-Feb-24 07:30 068 2 gusting 5 11.1
2020-Feb-24 07:20 090 2 gusting 4 11.1
2020-Feb-24 07:10 090 1 gusting 3 11.1
2020-Feb-24 07:00 113 0 gusting 2 10.6
2020-Feb-24 06:50 10.0
2020-Feb-24 06:40 203 0 gusting 2 9.4
2020-Feb-24 06:30 158 2 gusting 6 9.4
2020-Feb-24 06:20 180 2 gusting 5 9.4
2020-Feb-24 06:10 180 1 gusting 4 9.4
2020-Feb-24 06:00 203 1 gusting 2 9.4
2020-Feb-24 05:50 180 2 gusting 4 8.9
2020-Feb-24 05:40 135 1 gusting 5 8.9
2020-Feb-24 05:30 158 3 gusting 6 8.9
2020-Feb-24 05:20 158 2 gusting 5 8.9
2020-Feb-24 05:10 9.4
2020-Feb-24 05:00 8.9
2020-Feb-24 04:50 180 0 gusting 2 8.9
2020-Feb-24 04:40 180 1 gusting 4 8.9
2020-Feb-24 04:30 113 1 gusting 4 9.4
2020-Feb-24 04:20 113 0 gusting 2 9.4
2020-Feb-24 04:10 113 0 gusting 2 9.4
2020-Feb-24 04:00 10.0
2020-Feb-24 03:50 068 0 gusting 2 10.0
2020-Feb-24 03:40 068 1 gusting 3 10.0
2020-Feb-24 03:30 068 0 gusting 2 10.0
2020-Feb-24 03:20 10.0
2020-Feb-24 03:10 10.0
2020-Feb-24 03:00 068 2 gusting 4 10.0